Time;durP1;ratioP1;P1;durP2;ratioP2;P2;SDS_P1;SDS_P2;PMS_P1;PMS_P2;Temp;Humidity;BMP_temperature;BMP_pressure;BME280_temperature;BME280_humidity;BME280_pressure;Samples;Min_cycle;Max_cycle;Signal;HPM_P1;HPM_P2
2021/06/30 00:01:16;;;;;;;16.20;14.68;;;18.70;99.90;;;;;;5081273;28;20116;-43
2021/06/30 00:03:41;;;;;;;17.38;15.68;;;18.70;99.90;;;;;;5099572;28;20032;-42
2021/06/30 00:06:07;;;;;;;16.80;15.10;;;18.70;99.90;;;;;;5109585;28;20023;-43
2021/06/30 00:08:33;;;;;;;17.88;16.08;;;18.70;99.90;;;;;;5078131;28;20039;-43
2021/06/30 00:10:59;;;;;;;16.90;15.20;;;18.70;99.90;;;;;;5090275;28;20081;-43
2021/06/30 00:13:25;;;;;;;20.20;16.50;;;18.70;99.90;;;;;;5079021;28;20032;-42
2021/06/30 00:15:53;;;;;;;20.67;18.55;;;18.70;99.90;;;;;;5086411;28;20021;-42
2021/06/30 00:18:22;;;;;;;21.13;18.85;;;18.80;99.90;;;;;;5089778;28;20012;-43
2021/06/30 00:20:48;;;;;;;20.83;17.00;;;18.80;99.90;;;;;;5089413;28;20012;-42
2021/06/30 00:23:14;;;;;;;20.67;17.35;;;18.80;99.90;;;;;;5075644;28;20025;-42
2021/06/30 00:25:39;;;;;;;19.50;17.60;;;18.90;99.90;;;;;;5070333;28;20031;-42
2021/06/30 00:28:05;;;;;;;20.05;17.88;;;18.90;99.90;;;;;;5069441;28;20461;-43
2021/06/30 00:30:31;;;;;;;19.50;17.40;;;19.00;99.90;;;;;;5075879;28;20029;-42
2021/06/30 00:32:57;;;;;;;22.90;20.20;;;19.00;99.90;;;;;;5085673;28;20032;-42
2021/06/30 00:35:22;;;;;;;22.40;19.48;;;19.00;99.90;;;;;;5086349;28;20031;-42
2021/06/30 00:37:48;;;;;;;20.38;18.25;;;19.00;99.90;;;;;;5081461;28;20020;-42
2021/06/30 00:40:14;;;;;;;18.98;17.08;;;19.00;99.90;;;;;;5088386;28;20107;-42
2021/06/30 00:42:39;;;;;;;19.92;17.85;;;18.90;99.90;;;;;;5083541;28;20040;-43
2021/06/30 00:45:07;;;;;;;18.60;16.80;;;19.00;99.90;;;;;;5097828;28;20020;-42
2021/06/30 00:47:34;;;;;;;18.45;16.58;;;18.90;99.90;;;;;;5110678;28;20027;-42
2021/06/30 00:49:59;;;;;;;18.65;16.85;;;18.90;99.90;;;;;;5110465;28;20035;-43
2021/06/30 00:52:25;;;;;;;22.75;20.33;;;18.90;99.90;;;;;;5080433;27;20043;-42
2021/06/30 00:54:51;;;;;;;21.85;19.55;;;18.80;99.90;;;;;;5069998;28;20429;-42
2021/06/30 00:57:19;;;;;;;20.90;18.80;;;18.80;99.90;;;;;;5077825;28;20035;-43
2021/06/30 00:59:45;;;;;;;21.27;18.52;;;18.80;99.90;;;;;;5082811;28;20435;-43
2021/06/30 01:02:11;;;;;;;21.55;18.75;;;18.70;99.90;;;;;;5085403;28;20036;-43
2021/06/30 01:04:37;;;;;;;20.88;18.67;;;18.70;99.90;;;;;;5089140;28;20385;-42
2021/06/30 01:07:03;;;;;;;23.08;20.67;;;18.70;99.90;;;;;;5087768;28;20205;-43
2021/06/30 01:09:29;;;;;;;24.48;21.88;;;18.70;99.90;;;;;;5088059;28;20052;-43
2021/06/30 01:11:57;;;;;;;22.50;20.30;;;18.70;99.90;;;;;;5088882;28;20084;-43
2021/06/30 01:14:28;;;;;;;28.58;24.90;;;18.70;99.90;;;;;;5068693;28;20075;-42
2021/06/30 01:16:55;;;;;;;25.67;21.45;;;18.70;99.90;;;;;;5069429;28;20017;-43
2021/06/30 01:19:22;;;;;;;21.88;19.58;;;18.70;99.90;;;;;;5085849;28;20055;-43
2021/06/30 01:21:49;;;;;;;22.38;20.05;;;18.70;99.90;;;;;;5086390;28;20032;-42
2021/06/30 01:24:16;;;;;;;30.48;24.52;;;18.70;99.90;;;;;;5089964;28;20459;-42
2021/06/30 01:26:42;;;;;;;27.23;24.17;;;18.80;99.90;;;;;;5089817;28;20186;-42
2021/06/30 01:29:08;;;;;;;32.53;23.42;;;18.80;99.90;;;;;;5087664;28;20050;-43
2021/06/30 01:31:34;;;;;;;37.30;23.80;;;18.80;99.90;;;;;;5093333;28;20020;-42
2021/06/30 01:33:59;;;;;;;34.95;23.40;;;18.80;99.90;;;;;;5089559;28;20481;-42
2021/06/30 01:36:25;;;;;;;34.90;24.92;;;18.70;99.90;;;;;;5081916;28;20033;-42
2021/06/30 01:38:50;;;;;;;40.38;25.08;;;18.60;99.90;;;;;;5068171;28;20414;-43
2021/06/30 01:41:16;;;;;;;43.63;24.58;;;18.60;99.90;;;;;;5068516;28;20509;-42
2021/06/30 01:43:42;;;;;;;36.70;23.40;;;18.50;99.90;;;;;;5081584;28;20022;-42
2021/06/30 01:46:08;;;;;;;32.10;24.13;;;18.50;99.90;;;;;;5087848;28;20501;-45
2021/06/30 01:48:34;;;;;;;26.30;21.02;;;18.40;99.90;;;;;;5086712;28;20016;-42
2021/06/30 01:51:00;;;;;;;30.77;21.23;;;18.40;99.90;;;;;;5091604;28;20038;-42
2021/06/30 01:53:26;;;;;;;23.95;19.40;;;18.30;99.90;;;;;;5085947;28;20032;-42
2021/06/30 01:55:52;;;;;;;24.20;17.63;;;18.30;99.90;;;;;;5089061;28;20094;-43
2021/06/30 01:58:19;;;;;;;20.98;16.98;;;18.20;99.90;;;;;;5077914;28;20398;-43
2021/06/30 02:00:51;;;;;;;23.90;17.85;;;18.20;99.90;;;;;;5084184;28;22214;-43
2021/06/30 02:03:18;;;;;;;19.88;16.35;;;18.10;99.90;;;;;;5088230;28;20551;-42
2021/06/30 02:05:44;;;;;;;20.20;17.10;;;18.10;99.90;;;;;;5091238;28;20024;-43
2021/06/30 02:08:09;;;;;;;17.00;15.13;;;18.10;99.90;;;;;;5086627;28;20500;-43
2021/06/30 02:10:35;;;;;;;19.63;15.43;;;18.00;99.90;;;;;;5078687;28;20035;-43
2021/06/30 02:13:00;;;;;;;18.48;14.52;;;18.00;99.90;;;;;;5082907;28;20448;-43
2021/06/30 02:15:29;;;;;;;16.27;13.10;;;18.00;99.90;;;;;;5076298;28;20044;-43
2021/06/30 02:17:56;;;;;;;15.00;12.90;;;18.00;99.90;;;;;;5075351;28;20101;-43
2021/06/30 02:20:24;;;;;;;13.13;11.73;;;18.00;99.90;;;;;;5080485;28;20040;-43
2021/06/30 02:22:50;;;;;;;17.33;11.98;;;18.00;99.90;;;;;;5076887;28;20098;-43
2021/06/30 02:25:19;;;;;;;14.70;11.30;;;18.00;99.90;;;;;;5085362;28;20353;-42
2021/06/30 02:27:45;;;;;;;10.95;9.85;;;18.00;99.90;;;;;;5078983;28;20090;-43
2021/06/30 02:30:13;;;;;;;12.80;10.07;;;18.00;99.90;;;;;;5075713;28;20032;-43
2021/06/30 02:32:39;;;;;;;12.82;9.52;;;18.10;99.90;;;;;;5078108;28;20107;-43
2021/06/30 02:35:08;;;;;;;15.10;9.18;;;18.10;99.90;;;;;;5076326;28;20251;-43
2021/06/30 02:37:35;;;;;;;9.52;8.57;;;18.00;99.90;;;;;;5077824;28;20025;-42
2021/06/30 02:40:01;;;;;;;14.00;8.30;;;18.00;99.90;;;;;;5076047;28;20198;-43
2021/06/30 02:42:26;;;;;;;10.32;8.38;;;18.00;99.90;;;;;;5079814;28;20406;-43
2021/06/30 02:44:52;;;;;;;17.73;8.75;;;18.00;99.90;;;;;;5073622;28;20043;-43
2021/06/30 02:47:18;;;;;;;10.65;8.30;;;18.00;99.90;;;;;;5083192;28;20102;-43
2021/06/30 02:49:44;;;;;;;14.73;7.97;;;18.00;99.90;;;;;;5074270;28;20452;-41
2021/06/30 02:52:10;;;;;;;11.57;8.32;;;18.00;99.90;;;;;;5074663;28;20033;-43
2021/06/30 02:54:36;;;;;;;13.95;8.43;;;17.90;99.90;;;;;;5074760;28;20054;-42
2021/06/30 02:57:02;;;;;;;14.93;9.00;;;17.90;99.90;;;;;;5071315;28;20111;-42
2021/06/30 02:59:27;;;;;;;12.57;8.43;;;17.90;99.90;;;;;;5073427;28;20489;-42
2021/06/30 03:01:53;;;;;;;14.02;9.80;;;17.90;99.90;;;;;;5077934;28;20035;-41
2021/06/30 03:04:18;;;;;;;16.42;10.20;;;17.80;99.90;;;;;;5079163;28;20030;-42
2021/06/30 03:06:44;;;;;;;13.75;9.00;;;17.80;99.90;;;;;;5076514;28;20185;-42
2021/06/30 03:09:09;;;;;;;17.65;9.55;;;17.70;99.90;;;;;;5075054;28;20405;-42
2021/06/30 03:11:35;;;;;;;11.02;9.45;;;17.70;99.90;;;;;;5075856;28;20536;-42
2021/06/30 03:14:01;;;;;;;15.80;10.20;;;17.70;99.90;;;;;;5070829;28;20477;-42
2021/06/30 03:16:26;;;;;;;16.95;10.23;;;17.70;99.90;;;;;;5088751;28;20016;-42
2021/06/30 03:18:52;;;;;;;13.25;9.80;;;17.70;99.90;;;;;;5095423;28;20053;-42
2021/06/30 03:21:17;;;;;;;16.40;10.00;;;17.80;99.90;;;;;;5096229;28;20032;-43
2021/06/30 03:23:43;;;;;;;17.00;11.82;;;17.70;99.90;;;;;;5087151;28;20039;-42
2021/06/30 03:26:08;;;;;;;15.90;12.20;;;17.80;99.90;;;;;;5092282;28;20082;-42
2021/06/30 03:28:34;;;;;;;13.65;10.85;;;17.80;99.90;;;;;;5075163;28;20463;-42
2021/06/30 03:30:59;;;;;;;19.77;12.27;;;17.80;99.90;;;;;;5070861;28;20024;-42
2021/06/30 03:33:25;;;;;;;15.68;12.38;;;17.80;99.90;;;;;;5082865;28;20377;-42
2021/06/30 03:35:50;;;;;;;18.17;13.98;;;17.70;99.90;;;;;;5092021;28;20235;-43
2021/06/30 03:38:16;;;;;;;18.80;13.52;;;17.70;99.90;;;;;;5087521;28;20028;-43
2021/06/30 03:40:42;;;;;;;17.08;13.00;;;17.70;99.90;;;;;;5090859;28;20016;-41
2021/06/30 03:43:07;;;;;;;18.60;14.68;;;17.70;99.90;;;;;;5088856;28;20058;-41
2021/06/30 03:45:33;;;;;;;18.45;14.50;;;17.70;99.90;;;;;;5085144;28;20032;-41
2021/06/30 03:47:58;;;;;;;19.60;14.07;;;17.70;99.90;;;;;;5078409;28;20505;-42
2021/06/30 03:50:24;;;;;;;15.70;14.00;;;17.70;99.90;;;;;;5071321;28;20058;-41
2021/06/30 03:52:49;;;;;;;16.35;13.15;;;17.70;99.90;;;;;;5072550;28;20024;-42
2021/06/30 03:55:15;;;;;;;17.40;13.95;;;17.70;99.90;;;;;;5085010;28;20028;-41
2021/06/30 03:57:40;;;;;;;24.45;15.27;;;17.70;99.90;;;;;;5079702;28;20032;-42
2021/06/30 04:00:07;;;;;;;19.85;14.73;;;17.80;99.90;;;;;;5075848;28;20266;-41
2021/06/30 04:02:33;;;;;;;17.73;14.60;;;17.80;99.90;;;;;;5094811;27;20066;-42
2021/06/30 04:04:59;;;;;;;15.60;13.93;;;17.80;99.90;;;;;;5086771;28;20063;-42
2021/06/30 04:07:24;;;;;;;17.38;14.30;;;17.80;99.90;;;;;;5091781;28;20148;-42
2021/06/30 04:09:50;;;;;;;18.35;14.13;;;17.80;99.90;;;;;;5090847;28;20035;-42
2021/06/30 04:12:15;;;;;;;22.95;15.13;;;17.80;99.90;;;;;;5100264;28;20470;-42
2021/06/30 04:14:41;;;;;;;19.63;15.13;;;17.70;99.90;;;;;;5071783;28;20048;-42
2021/06/30 04:17:06;;;;;;;17.90;13.82;;;17.70;99.90;;;;;;5070898;28;20024;-42
2021/06/30 04:19:32;;;;;;;22.90;16.17;;;17.70;99.90;;;;;;5085786;28;20047;-42
2021/06/30 04:21:57;;;;;;;19.02;14.13;;;17.70;99.90;;;;;;5089959;28;20020;-42
2021/06/30 04:24:23;;;;;;;16.95;13.98;;;17.70;99.90;;;;;;5092313;28;20020;-42
2021/06/30 04:26:48;;;;;;;18.08;15.27;;;17.80;99.90;;;;;;5090301;28;20028;-42
2021/06/30 04:29:14;;;;;;;20.25;14.70;;;17.80;99.90;;;;;;5071215;28;20077;-42
2021/06/30 04:31:39;;;;;;;22.08;15.30;;;17.90;99.90;;;;;;5076862;28;20032;-42
2021/06/30 04:34:05;;;;;;;21.20;16.08;;;17.80;99.90;;;;;;5091132;28;20484;-43
2021/06/30 04:36:30;;;;;;;21.70;14.98;;;17.80;99.90;;;;;;5090955;28;20028;-43
2021/06/30 04:38:56;;;;;;;22.90;16.30;;;17.80;99.90;;;;;;5089724;28;20038;-42
2021/06/30 04:41:21;;;;;;;24.77;16.27;;;17.80;99.90;;;;;;5079698;28;20024;-42
2021/06/30 04:43:47;;;;;;;19.70;14.57;;;17.80;99.90;;;;;;5081832;28;20039;-42
2021/06/30 04:46:12;;;;;;;27.30;16.35;;;17.80;99.90;;;;;;5079957;28;20360;-41
2021/06/30 04:48:39;;;;;;;25.45;18.48;;;17.80;99.90;;;;;;5079264;28;20483;-42
2021/06/30 04:51:05;;;;;;;24.45;17.40;;;17.80;99.90;;;;;;5081581;28;20016;-42
2021/06/30 04:53:31;;;;;;;20.92;17.40;;;17.80;99.90;;;;;;5078806;28;20110;-41
2021/06/30 04:55:58;;;;;;;24.17;17.80;;;17.80;99.90;;;;;;5081477;28;20415;-41
2021/06/30 04:58:25;;;;;;;22.83;17.10;;;17.80;99.90;;;;;;5079161;28;20058;-41
2021/06/30 05:00:54;;;;;;;24.88;16.75;;;17.80;99.90;;;;;;5073353;28;20504;-41
2021/06/30 05:03:20;;;;;;;21.88;17.85;;;17.80;99.90;;;;;;5082337;28;20016;-42
2021/06/30 05:05:45;;;;;;;22.80;16.65;;;17.90;99.90;;;;;;5078430;28;20028;-41
2021/06/30 05:08:11;;;;;;;21.88;17.40;;;17.90;99.90;;;;;;5075301;28;20484;-41
2021/06/30 05:10:37;;;;;;;22.80;16.10;;;17.90;99.90;;;;;;5107463;28;20024;-41
2021/06/30 05:13:02;;;;;;;18.95;16.10;;;18.00;99.90;;;;;;5089771;28;20389;-41
2021/06/30 05:15:28;;;;;;;19.52;15.90;;;18.00;99.90;;;;;;5097089;28;20397;-42
2021/06/30 05:17:54;;;;;;;21.65;16.25;;;18.00;99.90;;;;;;5082711;28;20111;-41
2021/06/30 05:20:19;;;;;;;22.73;17.50;;;18.00;99.90;;;;;;5070511;28;20021;-42
2021/06/30 05:22:45;;;;;;;21.38;15.35;;;18.00;99.90;;;;;;5074874;28;20032;-41
2021/06/30 05:25:12;;;;;;;20.92;15.30;;;18.10;99.90;;;;;;5089415;28;20103;-41
2021/06/30 05:27:37;;;;;;;22.50;15.23;;;18.10;99.90;;;;;;5102799;28;20481;-40
2021/06/30 05:30:04;;;;;;;20.50;14.82;;;18.10;99.90;;;;;;5086473;28;20039;-41
2021/06/30 05:32:29;;;;;;;23.58;14.88;;;18.10;99.90;;;;;;5081786;28;20453;-41
2021/06/30 05:34:55;;;;;;;20.73;14.60;;;18.20;99.90;;;;;;5084453;28;20048;-41
2021/06/30 05:37:21;;;;;;;19.25;15.02;;;18.20;99.90;;;;;;5082441;28;20020;-41
2021/06/30 05:39:46;;;;;;;21.65;14.27;;;18.20;99.90;;;;;;5084912;28;20028;-41
2021/06/30 05:42:12;;;;;;;20.90;15.65;;;18.30;99.90;;;;;;5089409;28;20024;-41
2021/06/30 05:44:37;;;;;;;22.52;15.68;;;18.20;99.90;;;;;;5088730;28;20086;-41
2021/06/30 05:47:03;;;;;;;19.48;15.23;;;18.20;99.90;;;;;;5068659;28;20031;-41
2021/06/30 05:49:28;;;;;;;22.20;17.33;;;18.20;99.90;;;;;;5093134;28;20054;-42
2021/06/30 05:51:54;;;;;;;22.73;14.85;;;18.10;99.90;;;;;;5068803;28;20032;-42
2021/06/30 05:54:20;;;;;;;19.60;16.10;;;18.20;99.90;;;;;;5067791;28;20024;-42
2021/06/30 05:56:45;;;;;;;22.73;18.23;;;18.20;99.90;;;;;;5089464;28;20020;-42
2021/06/30 05:59:11;;;;;;;24.92;17.52;;;18.20;99.90;;;;;;5100808;28;20032;-42
2021/06/30 06:01:36;;;;;;;24.77;18.25;;;18.20;99.90;;;;;;5082753;28;20036;-42
2021/06/30 06:04:02;;;;;;;22.45;18.25;;;18.20;99.90;;;;;;5077123;28;20445;-42
2021/06/30 06:06:27;;;;;;;19.85;17.00;;;18.30;99.90;;;;;;5107109;28;20053;-42
2021/06/30 06:08:54;;;;;;;23.83;18.10;;;18.30;99.90;;;;;;5071681;28;20098;-42
2021/06/30 06:11:20;;;;;;;24.00;18.75;;;18.30;99.90;;;;;;5074568;28;20085;-42
2021/06/30 06:13:45;;;;;;;23.33;18.90;;;18.30;99.90;;;;;;5079012;28;20020;-42
2021/06/30 06:16:16;;;;;;;24.55;17.98;;;18.40;99.90;;;;;;5077692;28;20016;-42
2021/06/30 06:18:42;;;;;;;;;;;18.40;99.90;;;;;;5079767;28;20051;-43
2021/06/30 06:21:08;;;;;;;27.05;19.08;;;18.50;99.90;;;;;;5082277;28;20359;-43
2021/06/30 06:23:34;;;;;;;32.13;20.63;;;18.50;99.90;;;;;;5075816;28;20100;-42
2021/06/30 06:25:59;;;;;;;24.23;19.23;;;18.50;99.90;;;;;;5072741;28;20036;-43
2021/06/30 06:28:32;;;;;;;24.48;19.58;;;18.60;99.90;;;;;;5076819;28;20042;-40
2021/06/30 06:30:58;;;;;;;26.75;19.33;;;18.60;99.90;;;;;;5079520;28;20035;-41
2021/06/30 06:33:24;;;;;;;24.13;19.83;;;18.60;99.90;;;;;;5098049;28;20110;-42
2021/06/30 06:35:50;;;;;;;25.85;20.45;;;18.50;99.90;;;;;;5081889;28;20066;-41
2021/06/30 06:38:16;;;;;;;22.70;18.05;;;18.50;99.90;;;;;;5090012;28;21315;-41
2021/06/30 06:40:42;;;;;;;26.77;19.13;;;18.60;99.90;;;;;;5091255;28;20114;-42
2021/06/30 06:43:08;;;;;;;22.20;16.88;;;18.70;99.90;;;;;;5080596;28;21002;-42
2021/06/30 06:45:35;;;;;;;28.27;18.85;;;18.70;99.90;;;;;;5081225;28;20707;-42
2021/06/30 06:48:00;;;;;;;26.13;19.13;;;18.80;99.90;;;;;;5069447;28;20462;-42
2021/06/30 06:50:26;;;;;;;26.73;19.00;;;18.80;99.90;;;;;;5070947;28;20039;-42
2021/06/30 06:52:51;;;;;;;24.67;18.80;;;18.90;99.90;;;;;;5078711;28;20033;-43
2021/06/30 06:55:17;;;;;;;22.75;18.40;;;18.90;99.90;;;;;;5077607;28;20070;-42
2021/06/30 06:57:44;;;;;;;24.48;17.45;;;18.90;99.90;;;;;;5075334;28;20013;-42
2021/06/30 07:00:10;;;;;;;29.70;18.10;;;19.00;99.90;;;;;;5085017;28;20486;-44
2021/06/30 07:02:35;;;;;;;20.10;16.77;;;19.00;99.90;;;;;;5075357;28;20112;-42
2021/06/30 07:05:01;;;;;;;20.13;16.08;;;19.10;99.90;;;;;;5085647;28;20522;-43
2021/06/30 07:07:26;;;;;;;19.90;16.98;;;19.10;99.90;;;;;;5093108;28;20027;-47
2021/06/30 07:09:52;;;;;;;25.30;16.85;;;19.20;99.90;;;;;;5089274;28;20594;-42
2021/06/30 07:12:18;;;;;;;21.88;15.85;;;19.20;99.90;;;;;;5096116;28;20035;-46
2021/06/30 07:14:43;;;;;;;21.65;15.88;;;19.10;99.90;;;;;;5100473;28;20020;-42
2021/06/30 07:17:09;;;;;;;18.42;13.90;;;19.10;99.90;;;;;;5098802;28;20028;-42
2021/06/30 07:19:35;;;;;;;21.48;14.63;;;19.10;99.90;;;;;;5086307;28;20110;-41
2021/06/30 07:22:00;;;;;;;17.55;14.35;;;19.20;99.90;;;;;;5082087;28;20024;-41
2021/06/30 07:24:26;;;;;;;16.35;13.50;;;19.20;99.90;;;;;;5088689;28;20036;-41
2021/06/30 07:26:52;;;;;;;16.40;11.80;;;19.30;99.90;;;;;;5089709;28;20028;-41
2021/06/30 07:29:17;;;;;;;15.70;12.45;;;19.30;99.90;;;;;;5089022;28;20108;-41
2021/06/30 07:31:44;;;;;;;16.77;12.07;;;19.20;99.90;;;;;;5088775;28;20468;-41
2021/06/30 07:34:09;;;;;;;14.27;11.60;;;19.30;99.90;;;;;;5089292;28;20525;-41
2021/06/30 07:36:35;;;;;;;16.10;11.75;;;19.30;99.90;;;;;;5086937;28;20019;-41
2021/06/30 07:39:01;;;;;;;13.68;10.18;;;19.40;99.90;;;;;;5101038;28;20134;-47
2021/06/30 07:41:26;;;;;;;13.50;10.23;;;19.40;99.90;;;;;;5100314;28;20028;-41
2021/06/30 07:43:52;;;;;;;13.05;11.02;;;19.40;99.90;;;;;;5097798;28;20217;-42
2021/06/30 07:46:17;;;;;;;11.90;10.38;;;19.20;99.90;;;;;;5087190;28;20035;-41
2021/06/30 07:48:43;;;;;;;13.40;9.15;;;19.30;99.90;;;;;;5085145;28;20195;-41
2021/06/30 07:51:09;;;;;;;13.23;10.95;;;19.30;99.90;;;;;;5088806;28;20029;-41
2021/06/30 07:53:34;;;;;;;10.45;8.50;;;19.30;99.90;;;;;;5088439;28;20103;-42
2021/06/30 07:56:00;;;;;;;10.38;9.30;;;19.30;99.90;;;;;;5086279;28;20562;-42
2021/06/30 07:58:25;;;;;;;11.20;9.07;;;19.40;99.90;;;;;;5092850;28;20023;-41
2021/06/30 08:00:51;;;;;;;12.60;9.75;;;19.40;99.90;;;;;;5073932;28;20024;-41
2021/06/30 08:03:16;;;;;;;14.85;11.05;;;19.40;99.90;;;;;;5080281;28;20409;-42
2021/06/30 08:05:42;;;;;;;12.07;9.82;;;19.50;99.90;;;;;;5093849;28;20016;-42
2021/06/30 08:08:08;;;;;;;12.98;11.07;;;19.60;99.90;;;;;;5090583;28;20059;-42
2021/06/30 08:10:34;;;;;;;16.33;11.80;;;19.60;99.90;;;;;;5088942;28;20036;-42
2021/06/30 08:12:59;;;;;;;12.35;10.60;;;19.80;99.90;;;;;;5098237;28;20117;-42
2021/06/30 08:15:25;;;;;;;14.50;10.93;;;19.90;99.90;;;;;;5098983;28;20020;-42
2021/06/30 08:17:50;;;;;;;19.65;13.57;;;19.90;99.90;;;;;;5101590;28;20020;-43
2021/06/30 08:20:16;;;;;;;21.77;14.65;;;19.90;99.90;;;;;;5095205;28;20085;-42
2021/06/30 08:22:42;;;;;;;32.55;20.40;;;19.90;99.90;;;;;;5103625;28;20024;-42
2021/06/30 08:25:09;;;;;;;32.67;22.27;;;19.90;99.90;;;;;;5101607;28;20020;-42
2021/06/30 08:27:36;;;;;;;34.10;21.98;;;19.60;99.90;;;;;;5105524;28;20023;-42
2021/06/30 08:30:05;;;;;;;33.30;19.70;;;19.50;99.90;;;;;;5091960;28;20080;-42
2021/06/30 08:32:31;;;;;;;34.25;21.90;;;19.30;99.90;;;;;;5075123;28;20561;-42
2021/06/30 08:34:56;;;;;;;32.28;22.15;;;19.20;99.90;;;;;;5083025;28;20107;-42
2021/06/30 08:37:22;;;;;;;33.80;21.90;;;19.10;99.90;;;;;;5082230;28;20023;-42
2021/06/30 08:39:50;;;;;;;37.38;24.90;;;19.00;99.90;;;;;;5086269;28;20047;-42
2021/06/30 08:42:17;;;;;;;32.60;21.77;;;19.00;99.90;;;;;;5087864;28;20059;-42
2021/06/30 08:44:42;;;;;;;33.30;23.52;;;18.80;99.90;;;;;;5091629;28;20016;-42
2021/06/30 08:47:09;;;;;;;41.35;22.48;;;18.70;99.90;;;;;;5085629;28;20037;-41
2021/06/30 08:49:43;;;;;;;36.50;22.98;;;18.60;99.90;;;;;;5074427;28;20378;-42
2021/06/30 08:52:11;;;;;;;36.60;24.02;;;18.60;99.90;;;;;;5083206;28;20108;-42
2021/06/30 08:54:42;;;;;;;42.78;25.02;;;18.50;99.90;;;;;;5076975;28;20017;-42
2021/06/30 08:57:09;;;;;;;35.53;22.77;;;18.50;99.90;;;;;;5093419;28;20588;-41
2021/06/30 08:59:36;;;;;;;31.10;22.90;;;18.50;99.90;;;;;;5083275;28;20062;-42
2021/06/30 09:02:02;;;;;;;36.78;21.63;;;18.50;99.90;;;;;;5088103;28;20017;-42
2021/06/30 09:04:27;;;;;;;29.67;19.88;;;18.50;99.90;;;;;;5088455;28;20393;-42
2021/06/30 09:06:53;;;;;;;33.80;20.65;;;18.50;99.90;;;;;;5088787;28;20103;-41
2021/06/30 09:09:18;;;;;;;35.03;21.65;;;18.50;99.90;;;;;;5091676;28;20864;-42
2021/06/30 09:12:00;;;;;;;31.95;20.08;;;18.40;99.90;;;;;;5087366;28;20092;-42
2021/06/30 09:14:39;;;;;;;32.03;21.08;;;18.30;99.90;;;;;;5087468;28;20020;-42
2021/06/30 09:17:22;;;;;;;32.30;20.65;;;18.40;99.90;;;;;;5087995;28;20071;-42
2021/06/30 09:19:56;;;;;;;33.00;20.33;;;18.30;99.90;;;;;;5078863;28;20378;-41
2021/06/30 09:22:27;;;;;;;31.48;21.02;;;18.30;99.90;;;;;;5092537;28;20040;-42
2021/06/30 09:24:53;;;;;;;33.67;20.48;;;18.20;99.90;;;;;;5095311;28;20016;-42
2021/06/30 09:27:35;;;;;;;30.48;20.83;;;18.30;99.90;;;;;;5083952;28;20082;-41
2021/06/30 09:30:06;;;;;;;33.35;20.85;;;18.30;99.90;;;;;;5089713;28;20024;-42
2021/06/30 09:32:32;;;;;;;33.83;19.30;;;18.30;99.90;;;;;;5078400;28;20128;-42
2021/06/30 09:35:19;;;;;;;34.25;20.48;;;18.30;99.90;;;;;;5088390;28;20046;-42
2021/06/30 09:37:47;;;;;;;31.00;18.77;;;18.40;99.90;;;;;;5083939;28;20084;-42
2021/06/30 09:40:15;;;;;;;22.70;16.52;;;18.40;99.90;;;;;;5093584;28;20228;-42
2021/06/30 09:42:41;;;;;;;22.55;16.20;;;18.40;99.90;;;;;;5105425;28;20055;-42
2021/06/30 09:45:19;;;;;;;21.48;15.45;;;18.40;99.90;;;;;;5096455;28;20057;-42
2021/06/30 09:47:50;;;;;;;25.33;15.10;;;18.40;99.90;;;;;;5083599;28;20078;-40
2021/06/30 09:50:16;;;;;;;21.58;13.60;;;18.40;99.90;;;;;;5083431;28;20039;-43
2021/06/30 09:52:45;;;;;;;16.75;12.35;;;18.50;99.90;;;;;;5087856;28;20084;-42
2021/06/30 09:55:28;;;;;;;16.75;11.63;;;18.50;99.90;;;;;;5085247;28;20634;-42
2021/06/30 09:57:53;;;;;;;18.42;11.48;;;18.50;99.90;;;;;;5081019;28;20458;-42
2021/06/30 10:00:19;;;;;;;13.52;10.43;;;18.60;99.90;;;;;;5088846;28;20027;-42
2021/06/30 10:02:48;;;;;;;13.13;9.65;;;18.60;99.90;;;;;;5083883;28;20474;-42
2021/06/30 10:05:14;;;;;;;14.38;9.32;;;18.60;99.90;;;;;;5082595;28;20039;-42
2021/06/30 10:07:39;;;;;;;13.43;9.68;;;18.60;99.90;;;;;;5092248;28;20020;-43
2021/06/30 10:10:09;;;;;;;15.85;8.70;;;18.50;99.90;;;;;;5100843;28;20565;-40
2021/06/30 10:12:36;;;;;;;15.63;8.93;;;18.50;99.90;;;;;;5092265;28;20704;-40
2021/06/30 10:15:05;;;;;;;10.15;8.07;;;18.40;99.90;;;;;;5093416;28;20739;-40
2021/06/30 10:17:31;;;;;;;12.10;8.50;;;18.40;99.90;;;;;;5103680;28;20026;-40
2021/06/30 10:19:59;;;;;;;11.57;8.20;;;18.40;99.90;;;;;;5091721;28;20024;-43
2021/06/30 10:22:26;;;;;;;11.40;8.90;;;18.40;99.90;;;;;;5100493;28;20496;-42
2021/06/30 10:24:53;;;;;;;9.98;7.07;;;18.40;99.90;;;;;;5086111;28;20031;-42
2021/06/30 10:27:19;;;;;;;7.55;6.18;;;18.40;99.90;;;;;;5102630;28;20016;-42
2021/06/30 10:29:53;;;;;;;10.95;7.07;;;18.40;99.90;;;;;;5098073;28;20028;-41
2021/06/30 10:32:19;;;;;;;11.55;6.72;;;18.40;99.90;;;;;;5100763;28;20015;-42
2021/06/30 10:34:51;;;;;;;9.50;7.28;;;18.40;99.90;;;;;;5093176;28;20046;-41
2021/06/30 10:37:19;;;;;;;8.48;6.88;;;18.30;99.90;;;;;;5102749;28;20063;-41
2021/06/30 10:39:48;;;;;;;9.52;7.78;;;18.20;99.90;;;;;;5084984;28;20016;-41
2021/06/30 10:42:22;;;;;;;9.38;7.35;;;18.10;99.90;;;;;;5087737;28;20489;-42
2021/06/30 10:44:53;;;;;;;10.82;8.55;;;18.20;99.90;;;;;;5095616;28;20039;-41
2021/06/30 10:47:27;;;;;;;;;;;18.30;99.90;;;;;;5085585;28;20028;-42
2021/06/30 10:50:19;;;;;;;15.25;9.82;;;18.40;99.90;;;;;;5088075;28;19907;-42
2021/06/30 10:52:56;;;;;;;10.48;8.98;;;18.20;99.90;;;;;;5078449;28;20032;-41
2021/06/30 10:55:35;;;;;;;13.38;8.32;;;18.20;99.90;;;;;;5094816;28;20015;-42
2021/06/30 10:58:16;;;;;;;15.50;9.93;;;18.10;99.90;;;;;;5083023;28;20035;-42
2021/06/30 11:00:54;;;;;;;10.32;8.57;;;17.80;99.90;;;;;;5091842;28;20017;-42
2021/06/30 11:03:22;;;;;;;21.75;9.27;;;17.90;99.90;;;;;;5088787;28;20107;-41
2021/06/30 11:05:47;;;;;;;11.77;8.20;;;17.90;99.90;;;;;;5072498;28;20119;-41
2021/06/30 11:08:45;;;;;;;13.38;8.88;;;18.00;99.90;;;;;;5073136;28;20020;-41
2021/06/30 11:11:15;;;;;;;11.98;9.32;;;17.90;99.90;;;;;;5074014;28;20123;-47
2021/06/30 11:13:54;;;;;;;17.15;9.45;;;17.90;99.90;;;;;;5077111;28;20033;-41
2021/06/30 11:19:16;;;;;;;11.35;8.43;;;17.80;99.90;;;;;;5075318;28;20040;-41
2021/06/30 11:21:45;;;;;;;11.25;7.95;;;17.90;99.90;;;;;;5076378;28;20041;-41
2021/06/30 11:24:33;;;;;;;13.05;8.75;;;17.90;99.90;;;;;;5078278;28;20458;-41
2021/06/30 11:26:58;;;;;;;11.55;8.32;;;17.70;99.90;;;;;;5076063;28;20514;-41
2021/06/30 11:29:46;;;;;;;12.95;9.20;;;17.70;99.90;;;;;;5080725;28;20098;-41
2021/06/30 11:32:30;;;;;;;10.52;8.45;;;17.70;99.90;;;;;;5081942;28;20107;-41
2021/06/30 11:34:56;;;;;;;12.98;9.93;;;17.80;99.90;;;;;;5074294;28;20028;-41
2021/06/30 11:37:22;;;;;;;12.65;10.00;;;17.80;99.90;;;;;;5071413;28;20102;-41
2021/06/30 11:39:50;;;;;;;13.60;10.77;;;17.70;99.90;;;;;;5070715;28;20481;-41
2021/06/30 11:42:30;;;;;;;14.50;10.95;;;17.80;99.90;;;;;;5071568;28;20024;-41
2021/06/30 11:44:56;;;;;;;16.27;11.75;;;17.80;99.90;;;;;;5075532;28;20032;-41
2021/06/30 11:47:21;;;;;;;13.38;10.63;;;17.80;99.90;;;;;;5073633;28;20048;-41
2021/06/30 11:49:47;;;;;;;17.70;11.70;;;17.70;99.90;;;;;;5073393;28;20394;-41
2021/06/30 11:52:14;;;;;;;19.05;11.60;;;17.70;99.90;;;;;;5075156;28;20347;-41
2021/06/30 11:54:41;;;;;;;14.77;11.38;;;17.60;99.90;;;;;;5073577;28;20016;-41
2021/06/30 11:57:07;;;;;;;20.92;11.02;;;17.60;99.90;;;;;;5073443;28;20021;-41
2021/06/30 11:59:36;;;;;;;15.15;10.70;;;17.60;99.90;;;;;;5074574;28;20047;-41
2021/06/30 12:02:02;;;;;;;17.42;11.80;;;17.60;99.90;;;;;;5074915;28;20021;-42
2021/06/30 12:04:28;;;;;;;14.93;11.32;;;17.70;99.90;;;;;;5074247;28;20032;-41
2021/06/30 12:06:56;;;;;;;16.05;11.60;;;17.70;99.90;;;;;;5082070;28;20047;-41
2021/06/30 12:09:25;;;;;;;15.52;11.10;;;17.60;99.90;;;;;;5087215;28;20490;-41
2021/06/30 12:12:05;;;;;;;17.63;10.80;;;17.70;99.90;;;;;;5071434;28;20042;-42
2021/06/30 12:14:40;;;;;;;14.43;11.50;;;17.70;99.90;;;;;;5069752;28;20070;-41
2021/06/30 12:17:07;;;;;;;17.88;11.43;;;17.70;99.90;;;;;;5072378;28;20267;-41
2021/06/30 12:19:45;;;;;;;14.02;11.43;;;17.80;99.90;;;;;;5074115;28;20036;-42
2021/06/30 12:22:37;;;;;;;20.52;12.25;;;17.70;99.90;;;;;;5088344;28;20035;-41
2021/06/30 12:25:04;;;;;;;17.13;11.98;;;17.70;99.90;;;;;;5079431;28;20040;-41
2021/06/30 12:27:35;;;;;;;16.35;12.45;;;17.80;99.90;;;;;;5089959;28;20102;-41
2021/06/30 12:30:02;;;;;;;;;;;17.80;99.90;;;;;;5089210;28;20187;-42
2021/06/30 12:32:28;;;;;;;16.52;12.63;;;17.80;99.90;;;;;;5086513;28;20406;-42
2021/06/30 12:34:59;;;;;;;17.27;13.10;;;17.80;99.90;;;;;;5085632;28;20032;-42